• Join FlightAware (Why Join?)
  • Login
  • US Flag 
06:28PM EDT


 

Airport Tracker/Info


-or-


 

Live Flight TrackerFlight Track Log ✈ EJA727 ✈ 05-May-2013 ✈ KUGN - KOMA

Flight Track Log - Related Links

Times and Time Zones

All times are in EDT time to prevent confusion due to time zone crossing. See the EJA727 flight status page for this flight to view local times or setup timezone preferences in your user account.

Time Position Orientation Groundspeed Altitude Reporting Facility
EDT Latitude Longitude Course Direction KTS MPH feet Rate Location/Type
12:07PM 42.3833 -87.8333 147° Southeast 233 268 5,000  Level Chicago TRACON
12:07PM 42.3717 -87.8589 238° Southwest 244 281 5,900 2,880 Climbing Chicago Center
12:08PM 42.3067 -87.9300 219° Southwest 279 321 8,900 2,460 Climbing Chicago Center
12:09PM 42.2464 -88.0003 221° Southwest 288 331 11,000 2,040 Climbing Chicago Center
12:10PM 42.1803 -88.0736 219° Southwest 307 353 13,200 2,100 Climbing Chicago Center
12:11PM 42.1053 -88.1561 219° Southwest 358 412 15,400 2,340 Climbing Chicago Center
12:12PM 42.0333 -88.2706 230° Southwest 402 463 18,000 2,940 Climbing Chicago Center
12:13PM 41.9531 -88.4236 235° Southwest 419 482 21,500 2,280 Climbing Chicago Center
12:14PM 41.8925 -88.5700 241° Southwest 456 525 22,800 1,260 Climbing Chicago Center
12:15PM 41.8808 -88.7475 265° West 486 559 24,200 1,380 Climbing Chicago Center
12:16PM 41.8767 -88.9289 268° West 491 565 25,700 1,440 Climbing Chicago Center
12:17PM 41.8708 -89.1106 268° West 491 565 27,200 1,560 Climbing Chicago Center
12:18PM 41.8631 -89.3286 267° West 493 567 29,000 1,500 Climbing Chicago Center
12:19PM 41.8572 -89.5072 268° West 487 560 30,400 1,440 Climbing Chicago Center
12:20PM 41.8500 -89.6878 267° West 487 560 32,000 1,440 Climbing Chicago Center
12:21PM 41.8439 -89.8664 267° West 484 557 33,400 1,320 Climbing Chicago Center
12:22PM 41.8364 -90.0456 267° West 485 558 34,800 1,140 Climbing Chicago Center
12:23PM 41.8297 -90.2267 267° West 489 563 35,800 540 Climbing Chicago Center
12:24PM 41.8197 -90.4425 267° West 488 562 36,000 60 Climbing Chicago Center
12:25PM 41.8108 -90.6153 266° West 476 548 36,000  Level Chicago Center
12:26PM 41.8028 -90.7861 266° West 466 536 36,000  Level Chicago Center
12:27PM 41.7950 -90.9564 267° West 461 531 36,000  Level Chicago Center
12:29PM 41.7858 -91.1292 266° West 467 537 36,000  Level Chicago Center
12:30PM 41.7753 -91.3394 266° West 473 544 36,000  Level Chicago Center
12:31PM 41.7658 -91.5147 266° West 474 545 36,000  Level Chicago Center
12:32PM 41.7561 -91.6900 266° West 474 545 36,000  Level Chicago Center
12:33PM 41.7461 -91.8658 266° West 477 549 36,000  Level Chicago Center
12:34PM 41.7364 -92.0422 266° West 478 550 36,000  Level Chicago Center
12:35PM 41.7256 -92.2164 265° West 474 545 36,000  Level Chicago Center
12:36PM 41.7131 -92.4256 265° West 472 543 36,000  Level Chicago Center
12:37PM 41.7019 -92.5978 265° West 469 540 36,000 -300 Level Chicago Center
12:38PM 41.6917 -92.7561 265° West 471 542 35,500 -1,020 Descending Chicago Center
12:39PM 41.6772 -92.9656 265° West 476 548 34,000 -780 Descending Chicago Center
12:40PM 41.6664 -93.1389 265° West 473 544 34,000  Level Minneapolis Center
12:41PM 41.6553 -93.3069 265° West 464 534 34,000  Level Minneapolis Center
12:42PM 41.6428 -93.4736 264° West 458 527 34,000  Level Minneapolis Center
12:43PM 41.6314 -93.6450 265° West 464 534 34,000  Level Minneapolis Center
12:44PM 41.6200 -93.8203 265° West 475 547 34,000  Level Minneapolis Center
12:45PM 41.6036 -94.0281 264° West 474 545 34,000 -1,020 Level Minneapolis Center
12:46PM 41.5864 -94.2289 264° West 473 544 31,800 -2,520 Descending Minneapolis Center
12:47PM 41.5722 -94.4000 264° West 464 534 28,900 -3,120 Descending Minneapolis Center
12:48PM 41.5556 -94.6011 264° West 455 524 25,400 -3,180 Descending Minneapolis Center
12:49PM 41.5436 -94.7689 265° West 454 522 22,400 -2,880 Descending Minneapolis Center
12:50PM 41.5286 -94.9308 263° West 444 511 19,500 -2,400 Descending Minneapolis Center
12:51PM 41.5172 -95.0814 264° West 419 482 17,500 -1,620 Descending Minneapolis Center
12:52PM 41.4939 -95.2533 260° West 382 440 16,100 -1,680 Descending Minneapolis Center
12:53PM 41.4275 -95.3508 228° Southwest 352 405 14,000 -2,160 Descending Minneapolis Center
12:55PM 41.3650 -95.4447 228° Southwest 326 375 11,800 -2,220 Descending Minneapolis Center
12:56PM 41.3000 -95.5275 224° Southwest 331 381 9,500 -2,280 Descending Minneapolis Center
12:57PM 41.2461 -95.6008 226° Southwest 288 331 7,300 -1,980 Descending Minneapolis Center
12:58PM 41.1933 -95.6561 218° Southwest 297 342 5,500 -2,160 Descending Minneapolis Center
12:58PM 41.1467 -95.7400 234° Southwest 276 318 3,200 -1,380 Descending Minneapolis Center
12:59PM 41.1878 -95.7906 317° Northwest 186 214 3,000 -300 Descending Minneapolis Center
01:00PM 41.2275 -95.8219 329° Northwest 154 177 2,700 -420 Descending Minneapolis Center
01:01PM 41.2319 -95.8219 360° North 186 214 2,500 -900 Descending Minneapolis Center
01:01PM 41.2633 -95.8539 323° Northwest 135 155 1,800 -780 Descending Minneapolis Center
01:02PM 41.2650 -95.8547 339° North 165 190 1,700 -720 Descending Minneapolis Center
01:03PM 41.3000 -95.8886 324° Northwest 145 167 900 -780 Descending Minneapolis Center
01:05PM 41.3032 -95.8941 145° Southeast  Level Estimated